sensor_id;sensor_type;location;lat;lon;timestamp;temperature;humidity
15543;DHT22;7873;52.230;12.856;2023-01-16T00:00:50;25.30;41.50
15543;DHT22;7873;52.230;12.856;2023-01-16T00:03:16;25.20;41.50
15543;DHT22;7873;52.230;12.856;2023-01-16T00:05:43;25.20;41.60
15543;DHT22;7873;52.230;12.856;2023-01-16T00:08:10;25.20;41.70
15543;DHT22;7873;52.230;12.856;2023-01-16T00:10:37;25.10;41.70
15543;DHT22;7873;52.230;12.856;2023-01-16T00:13:04;25.10;41.70
15543;DHT22;7873;52.230;12.856;2023-01-16T00:15:31;25.10;41.80
15543;DHT22;7873;52.230;12.856;2023-01-16T00:17:59;25.00;41.80
15543;DHT22;7873;52.230;12.856;2023-01-16T00:20:25;25.00;41.90
15543;DHT22;7873;52.230;12.856;2023-01-16T00:22:52;25.00;41.90
15543;DHT22;7873;52.230;12.856;2023-01-16T00:25:19;25.00;42.00
15543;DHT22;7873;52.230;12.856;2023-01-16T00:27:46;24.90;42.00
15543;DHT22;7873;52.230;12.856;2023-01-16T00:30:13;24.90;41.90
15543;DHT22;7873;52.230;12.856;2023-01-16T00:32:40;24.80;42.00
15543;DHT22;7873;52.230;12.856;2023-01-16T00:35:08;24.80;42.00
15543;DHT22;7873;52.230;12.856;2023-01-16T00:37:35;24.80;42.00
15543;DHT22;7873;52.230;12.856;2023-01-16T00:40:01;24.80;42.10
15543;DHT22;7873;52.230;12.856;2023-01-16T00:42:28;24.80;42.00
15543;DHT22;7873;52.230;12.856;2023-01-16T00:44:55;24.70;42.20
15543;DHT22;7873;52.230;12.856;2023-01-16T00:47:22;24.70;42.20
15543;DHT22;7873;52.230;12.856;2023-01-16T00:49:48;24.70;42.20
15543;DHT22;7873;52.230;12.856;2023-01-16T00:52:16;24.60;42.30
15543;DHT22;7873;52.230;12.856;2023-01-16T00:54:43;24.60;42.20
15543;DHT22;7873;52.230;12.856;2023-01-16T00:57:10;24.60;42.30
15543;DHT22;7873;52.230;12.856;2023-01-16T00:59:36;24.60;42.30
15543;DHT22;7873;52.230;12.856;2023-01-16T01:02:03;24.60;42.30
15543;DHT22;7873;52.230;12.856;2023-01-16T01:04:29;24.50;42.40
15543;DHT22;7873;52.230;12.856;2023-01-16T01:06:56;24.50;42.30
15543;DHT22;7873;52.230;12.856;2023-01-16T01:09:24;24.50;42.40
15543;DHT22;7873;52.230;12.856;2023-01-16T01:11:51;24.50;42.40
15543;DHT22;7873;52.230;12.856;2023-01-16T01:14:17;24.50;42.50
15543;DHT22;7873;52.230;12.856;2023-01-16T01:16:44;24.50;42.50
15543;DHT22;7873;52.230;12.856;2023-01-16T01:19:11;24.50;42.50
15543;DHT22;7873;52.230;12.856;2023-01-16T01:21:37;24.40;42.40
15543;DHT22;7873;52.230;12.856;2023-01-16T01:24:04;24.40;42.40
15543;DHT22;7873;52.230;12.856;2023-01-16T01:26:32;24.40;42.60
15543;DHT22;7873;52.230;12.856;2023-01-16T01:28:59;24.40;42.60
15543;DHT22;7873;52.230;12.856;2023-01-16T01:31:26;24.40;42.60
15543;DHT22;7873;52.230;12.856;2023-01-16T01:33:52;24.30;42.60
15543;DHT22;7873;52.230;12.856;2023-01-16T01:36:19;24.30;42.60
15543;DHT22;7873;52.230;12.856;2023-01-16T01:38:46;24.30;42.70
15543;DHT22;7873;52.230;12.856;2023-01-16T01:41:14;24.30;42.70
15543;DHT22;7873;52.230;12.856;2023-01-16T01:43:44;24.30;42.70
15543;DHT22;7873;52.230;12.856;2023-01-16T01:46:15;24.30;42.70
15543;DHT22;7873;52.230;12.856;2023-01-16T01:48:47;24.30;42.70
15543;DHT22;7873;52.230;12.856;2023-01-16T01:51:17;24.30;42.70
15543;DHT22;7873;52.230;12.856;2023-01-16T01:53:48;24.20;42.80
15543;DHT22;7873;52.230;12.856;2023-01-16T01:56:19;24.20;42.90
15543;DHT22;7873;52.230;12.856;2023-01-16T01:58:51;24.20;42.90
15543;DHT22;7873;52.230;12.856;2023-01-16T02:01:21;24.20;43.00
15543;DHT22;7873;52.230;12.856;2023-01-16T02:03:49;24.10;43.30
15543;DHT22;7873;52.230;12.856;2023-01-16T02:06:22;24.20;43.00
15543;DHT22;7873;52.230;12.856;2023-01-16T02:08:54;24.10;43.10
15543;DHT22;7873;52.230;12.856;2023-01-16T02:11:23;24.10;43.30
15543;DHT22;7873;52.230;12.856;2023-01-16T02:13:59;24.10;43.40
15543;DHT22;7873;52.230;12.856;2023-01-16T02:16:28;24.10;43.10
15543;DHT22;7873;52.230;12.856;2023-01-16T02:19:14;24.00;43.00
15543;DHT22;7873;52.230;12.856;2023-01-16T02:24:54;24.10;43.30
15543;DHT22;7873;52.230;12.856;2023-01-16T02:27:43;24.00;43.20
15543;DHT22;7873;52.230;12.856;2023-01-16T02:30:28;24.00;43.30
15543;DHT22;7873;52.230;12.856;2023-01-16T02:33:07;23.90;43.30
15543;DHT22;7873;52.230;12.856;2023-01-16T02:35:44;23.90;43.50
15543;DHT22;7873;52.230;12.856;2023-01-16T02:38:19;23.90;43.40
15543;DHT22;7873;52.230;12.856;2023-01-16T02:40:54;23.90;43.50
15543;DHT22;7873;52.230;12.856;2023-01-16T02:43:28;23.90;43.40
15543;DHT22;7873;52.230;12.856;2023-01-16T02:46:05;23.90;43.50
15543;DHT22;7873;52.230;12.856;2023-01-16T02:48:37;23.90;43.50
15543;DHT22;7873;52.230;12.856;2023-01-16T02:51:11;23.80;43.40
15543;DHT22;7873;52.230;12.856;2023-01-16T02:53:43;23.80;43.50
15543;DHT22;7873;52.230;12.856;2023-01-16T02:56:14;23.80;44.30
15543;DHT22;7873;52.230;12.856;2023-01-16T02:58:46;23.80;43.50
15543;DHT22;7873;52.230;12.856;2023-01-16T03:01:16;23.80;43.40
15543;DHT22;7873;52.230;12.856;2023-01-16T03:03:46;23.80;43.70
15543;DHT22;7873;52.230;12.856;2023-01-16T03:06:25;23.80;43.70
15543;DHT22;7873;52.230;12.856;2023-01-16T03:09:00;23.80;43.70
15543;DHT22;7873;52.230;12.856;2023-01-16T03:11:35;23.70;43.40
15543;DHT22;7873;52.230;12.856;2023-01-16T03:14:10;23.70;43.80
15543;DHT22;7873;52.230;12.856;2023-01-16T03:16:48;23.70;43.60
15543;DHT22;7873;52.230;12.856;2023-01-16T03:19:27;23.70;43.80
15543;DHT22;7873;52.230;12.856;2023-01-16T03:22:06;23.70;43.70
15543;DHT22;7873;52.230;12.856;2023-01-16T03:24:41;23.70;43.80
15543;DHT22;7873;52.230;12.856;2023-01-16T03:27:21;23.70;43.80
15543;DHT22;7873;52.230;12.856;2023-01-16T03:29:57;23.60;43.80
15543;DHT22;7873;52.230;12.856;2023-01-16T03:32:30;23.60;43.80
15543;DHT22;7873;52.230;12.856;2023-01-16T03:35:05;23.60;43.80
15543;DHT22;7873;52.230;12.856;2023-01-16T03:37:34;23.60;43.80
15543;DHT22;7873;52.230;12.856;2023-01-16T03:40:06;23.60;43.80
15543;DHT22;7873;52.230;12.856;2023-01-16T03:42:37;23.60;43.90
15543;DHT22;7873;52.230;12.856;2023-01-16T03:45:09;23.60;43.80
15543;DHT22;7873;52.230;12.856;2023-01-16T03:47:41;23.50;43.70
15543;DHT22;7873;52.230;12.856;2023-01-16T03:50:14;23.50;43.80
15543;DHT22;7873;52.230;12.856;2023-01-16T03:52:47;23.50;43.90
15543;DHT22;7873;52.230;12.856;2023-01-16T03:55:17;23.50;44.00
15543;DHT22;7873;52.230;12.856;2023-01-16T03:57:49;23.50;43.90
15543;DHT22;7873;52.230;12.856;2023-01-16T04:00:18;23.50;44.00
15543;DHT22;7873;52.230;12.856;2023-01-16T04:02:46;23.50;44.00
15543;DHT22;7873;52.230;12.856;2023-01-16T04:05:18;23.40;43.90
15543;DHT22;7873;52.230;12.856;2023-01-16T04:07:50;23.40;43.70
15543;DHT22;7873;52.230;12.856;2023-01-16T04:10:22;23.40;44.00
15543;DHT22;7873;52.230;12.856;2023-01-16T04:12:52;23.40;43.60
15543;DHT22;7873;52.230;12.856;2023-01-16T04:15:22;23.40;43.90
15543;DHT22;7873;52.230;12.856;2023-01-16T04:17:51;23.50;44.00
15543;DHT22;7873;52.230;12.856;2023-01-16T04:20:19;23.40;43.90
15543;DHT22;7873;52.230;12.856;2023-01-16T04:22:47;23.50;44.00
15543;DHT22;7873;52.230;12.856;2023-01-16T04:25:15;23.60;43.50
15543;DHT22;7873;52.230;12.856;2023-01-16T04:27:43;23.70;43.80
15543;DHT22;7873;52.230;12.856;2023-01-16T04:30:10;23.80;43.10
15543;DHT22;7873;52.230;12.856;2023-01-16T04:32:38;23.80;41.10
15543;DHT22;7873;52.230;12.856;2023-01-16T04:35:05;23.80;41.40
15543;DHT22;7873;52.230;12.856;2023-01-16T04:37:33;23.80;41.60
15543;DHT22;7873;52.230;12.856;2023-01-16T04:40:00;23.90;41.40
15543;DHT22;7873;52.230;12.856;2023-01-16T04:42:27;23.90;40.70
15543;DHT22;7873;52.230;12.856;2023-01-16T04:44:53;23.90;40.80
15543;DHT22;7873;52.230;12.856;2023-01-16T04:47:20;23.90;40.50
15543;DHT22;7873;52.230;12.856;2023-01-16T04:49:47;23.90;40.10
15543;DHT22;7873;52.230;12.856;2023-01-16T04:52:13;23.80;40.20
15543;DHT22;7873;52.230;12.856;2023-01-16T04:54:41;23.90;40.30
15543;DHT22;7873;52.230;12.856;2023-01-16T04:57:08;23.80;40.50
15543;DHT22;7873;52.230;12.856;2023-01-16T04:59:35;23.80;40.30
15543;DHT22;7873;52.230;12.856;2023-01-16T05:02:01;23.80;40.30
15543;DHT22;7873;52.230;12.856;2023-01-16T05:04:28;23.80;40.70
15543;DHT22;7873;52.230;12.856;2023-01-16T05:06:55;23.80;41.00
15543;DHT22;7873;52.230;12.856;2023-01-16T05:09:21;23.80;40.50
15543;DHT22;7873;52.230;12.856;2023-01-16T05:11:49;23.80;40.70
15543;DHT22;7873;52.230;12.856;2023-01-16T05:14:16;23.90;40.60
15543;DHT22;7873;52.230;12.856;2023-01-16T05:16:43;23.90;40.70
15543;DHT22;7873;52.230;12.856;2023-01-16T05:19:10;23.70;38.80
15543;DHT22;7873;52.230;12.856;2023-01-16T05:21:36;23.60;40.00
15543;DHT22;7873;52.230;12.856;2023-01-16T05:24:03;23.40;36.60
15543;DHT22;7873;52.230;12.856;2023-01-16T05:26:31;23.20;37.80
15543;DHT22;7873;52.230;12.856;2023-01-16T05:28:59;23.10;38.20
15543;DHT22;7873;52.230;12.856;2023-01-16T05:31:26;23.20;38.90
15543;DHT22;7873;52.230;12.856;2023-01-16T05:33:52;23.20;38.50
15543;DHT22;7873;52.230;12.856;2023-01-16T05:36:19;23.20;38.80
15543;DHT22;7873;52.230;12.856;2023-01-16T05:38:46;23.10;39.20
15543;DHT22;7873;52.230;12.856;2023-01-16T05:41:13;23.10;38.80
15543;DHT22;7873;52.230;12.856;2023-01-16T05:43:39;23.00;39.50
15543;DHT22;7873;52.230;12.856;2023-01-16T05:46:07;23.10;39.70
15543;DHT22;7873;52.230;12.856;2023-01-16T05:48:34;23.10;39.70
15543;DHT22;7873;52.230;12.856;2023-01-16T05:51:02;23.00;40.00
15543;DHT22;7873;52.230;12.856;2023-01-16T05:53:30;23.00;40.30
15543;DHT22;7873;52.230;12.856;2023-01-16T05:55:57;23.00;39.10
15543;DHT22;7873;52.230;12.856;2023-01-16T05:58:24;23.00;39.60
15543;DHT22;7873;52.230;12.856;2023-01-16T06:00:51;23.00;39.90
15543;DHT22;7873;52.230;12.856;2023-01-16T06:03:19;23.00;39.80
15543;DHT22;7873;52.230;12.856;2023-01-16T06:05:47;23.00;40.30
15543;DHT22;7873;52.230;12.856;2023-01-16T06:08:13;23.00;40.60
15543;DHT22;7873;52.230;12.856;2023-01-16T06:10:40;23.00;40.90
15543;DHT22;7873;52.230;12.856;2023-01-16T06:13:06;23.00;41.10
15543;DHT22;7873;52.230;12.856;2023-01-16T06:15:33;23.00;41.30
15543;DHT22;7873;52.230;12.856;2023-01-16T06:18:01;22.90;41.20
15543;DHT22;7873;52.230;12.856;2023-01-16T06:20:29;22.90;41.40
15543;DHT22;7873;52.230;12.856;2023-01-16T06:22:56;22.90;41.50
15543;DHT22;7873;52.230;12.856;2023-01-16T06:25:22;22.90;41.60
15543;DHT22;7873;52.230;12.856;2023-01-16T06:27:49;22.90;41.70
15543;DHT22;7873;52.230;12.856;2023-01-16T06:30:16;22.80;41.80
15543;DHT22;7873;52.230;12.856;2023-01-16T06:32:43;22.80;41.90
15543;DHT22;7873;52.230;12.856;2023-01-16T06:35:13;22.80;41.80
15543;DHT22;7873;52.230;12.856;2023-01-16T06:37:41;22.80;42.10
15543;DHT22;7873;52.230;12.856;2023-01-16T06:40:08;22.80;42.10
15543;DHT22;7873;52.230;12.856;2023-01-16T06:42:36;22.70;42.10
15543;DHT22;7873;52.230;12.856;2023-01-16T06:45:02;22.70;42.10
15543;DHT22;7873;52.230;12.856;2023-01-16T06:47:30;22.70;42.20
15543;DHT22;7873;52.230;12.856;2023-01-16T06:49:57;22.70;42.30
15543;DHT22;7873;52.230;12.856;2023-01-16T06:52:24;22.70;42.30
15543;DHT22;7873;52.230;12.856;2023-01-16T06:54:52;22.70;42.30
15543;DHT22;7873;52.230;12.856;2023-01-16T06:57:18;22.70;42.30
15543;DHT22;7873;52.230;12.856;2023-01-16T06:59:45;22.70;42.30
15543;DHT22;7873;52.230;12.856;2023-01-16T07:02:11;22.70;42.50
15543;DHT22;7873;52.230;12.856;2023-01-16T07:04:38;22.60;42.40
15543;DHT22;7873;52.230;12.856;2023-01-16T07:07:05;22.60;42.40
15543;DHT22;7873;52.230;12.856;2023-01-16T07:09:32;22.60;42.60
15543;DHT22;7873;52.230;12.856;2023-01-16T07:12:00;22.60;42.50
15543;DHT22;7873;52.230;12.856;2023-01-16T07:14:26;22.60;42.60
15543;DHT22;7873;52.230;12.856;2023-01-16T07:17:11;22.60;42.50
15543;DHT22;7873;52.230;12.856;2023-01-16T07:19:55;22.60;42.70
15543;DHT22;7873;52.230;12.856;2023-01-16T07:22:40;22.50;42.60
15543;DHT22;7873;52.230;12.856;2023-01-16T07:25:09;22.50;42.60
15543;DHT22;7873;52.230;12.856;2023-01-16T07:27:40;22.50;42.70
15543;DHT22;7873;52.230;12.856;2023-01-16T07:30:08;22.50;42.70
15543;DHT22;7873;52.230;12.856;2023-01-16T07:32:36;22.50;42.70
15543;DHT22;7873;52.230;12.856;2023-01-16T07:35:04;22.50;42.70
15543;DHT22;7873;52.230;12.856;2023-01-16T07:37:32;22.40;42.70
15543;DHT22;7873;52.230;12.856;2023-01-16T07:39:59;22.40;42.70
15543;DHT22;7873;52.230;12.856;2023-01-16T07:42:26;22.40;42.70
15543;DHT22;7873;52.230;12.856;2023-01-16T07:44:54;22.40;42.70
15543;DHT22;7873;52.230;12.856;2023-01-16T07:47:20;22.40;42.80
15543;DHT22;7873;52.230;12.856;2023-01-16T07:49:47;22.40;42.80
15543;DHT22;7873;52.230;12.856;2023-01-16T07:52:13;22.40;42.80
15543;DHT22;7873;52.230;12.856;2023-01-16T07:54:42;22.40;42.80
15543;DHT22;7873;52.230;12.856;2023-01-16T07:57:09;22.40;42.80
15543;DHT22;7873;52.230;12.856;2023-01-16T07:59:35;22.40;42.90
15543;DHT22;7873;52.230;12.856;2023-01-16T08:02:03;22.40;42.90
15543;DHT22;7873;52.230;12.856;2023-01-16T08:04:30;22.40;43.00
15543;DHT22;7873;52.230;12.856;2023-01-16T08:06:57;22.40;43.00
15543;DHT22;7873;52.230;12.856;2023-01-16T08:09:23;22.30;42.90
15543;DHT22;7873;52.230;12.856;2023-01-16T08:11:50;22.30;43.00
15543;DHT22;7873;52.230;12.856;2023-01-16T08:14:17;22.30;43.00
15543;DHT22;7873;52.230;12.856;2023-01-16T08:16:43;22.30;43.00
15543;DHT22;7873;52.230;12.856;2023-01-16T08:19:11;22.30;43.00
15543;DHT22;7873;52.230;12.856;2023-01-16T08:21:38;22.30;43.00
15543;DHT22;7873;52.230;12.856;2023-01-16T08:24:05;22.30;43.00
15543;DHT22;7873;52.230;12.856;2023-01-16T08:26:31;22.30;43.00
15543;DHT22;7873;52.230;12.856;2023-01-16T08:28:58;22.30;43.00
15543;DHT22;7873;52.230;12.856;2023-01-16T08:31:27;22.30;43.00
15543;DHT22;7873;52.230;12.856;2023-01-16T08:33:54;22.20;43.00
15543;DHT22;7873;52.230;12.856;2023-01-16T08:36:22;22.20;43.10
15543;DHT22;7873;52.230;12.856;2023-01-16T08:38:50;22.20;43.00
15543;DHT22;7873;52.230;12.856;2023-01-16T08:41:17;22.20;43.00
15543;DHT22;7873;52.230;12.856;2023-01-16T08:44:02;22.20;43.10
15543;DHT22;7873;52.230;12.856;2023-01-16T08:46:47;22.20;43.20
15543;DHT22;7873;52.230;12.856;2023-01-16T08:49:38;22.20;43.20
15543;DHT22;7873;52.230;12.856;2023-01-16T08:52:24;22.10;43.10
15543;DHT22;7873;52.230;12.856;2023-01-16T08:54:52;22.20;43.10
15543;DHT22;7873;52.230;12.856;2023-01-16T08:57:19;22.20;43.20
15543;DHT22;7873;52.230;12.856;2023-01-16T08:59:45;22.20;43.20
15543;DHT22;7873;52.230;12.856;2023-01-16T09:02:12;22.20;43.20
15543;DHT22;7873;52.230;12.856;2023-01-16T09:04:39;22.10;43.10
15543;DHT22;7873;52.230;12.856;2023-01-16T09:07:06;22.10;43.10
15543;DHT22;7873;52.230;12.856;2023-01-16T09:09:34;22.10;43.10
15543;DHT22;7873;52.230;12.856;2023-01-16T09:12:01;22.10;43.10
15543;DHT22;7873;52.230;12.856;2023-01-16T09:14:45;22.10;43.10
15543;DHT22;7873;52.230;12.856;2023-01-16T09:17:12;22.10;43.10
15543;DHT22;7873;52.230;12.856;2023-01-16T09:19:38;22.10;43.10
15543;DHT22;7873;52.230;12.856;2023-01-16T09:22:05;22.10;43.10
15543;DHT22;7873;52.230;12.856;2023-01-16T09:24:32;22.10;43.10
15543;DHT22;7873;52.230;12.856;2023-01-16T09:27:00;22.10;43.10
15543;DHT22;7873;52.230;12.856;2023-01-16T09:29:27;22.10;43.10
15543;DHT22;7873;52.230;12.856;2023-01-16T09:31:54;22.10;43.10
15543;DHT22;7873;52.230;12.856;2023-01-16T09:34:20;22.10;43.10
15543;DHT22;7873;52.230;12.856;2023-01-16T09:36:47;22.10;43.10
15543;DHT22;7873;52.230;12.856;2023-01-16T09:39:14;22.10;43.10
15543;DHT22;7873;52.230;12.856;2023-01-16T09:41:47;22.10;43.20
15543;DHT22;7873;52.230;12.856;2023-01-16T09:44:41;22.10;43.10
15543;DHT22;7873;52.230;12.856;2023-01-16T09:47:10;22.10;43.10
15543;DHT22;7873;52.230;12.856;2023-01-16T09:49:39;22.00;43.10
15543;DHT22;7873;52.230;12.856;2023-01-16T09:52:11;22.00;43.10
15543;DHT22;7873;52.230;12.856;2023-01-16T09:55:01;22.00;43.20
15543;DHT22;7873;52.230;12.856;2023-01-16T09:57:50;22.00;43.20
15543;DHT22;7873;52.230;12.856;2023-01-16T10:00:37;22.00;43.10
15543;DHT22;7873;52.230;12.856;2023-01-16T10:03:04;22.00;43.30
15543;DHT22;7873;52.230;12.856;2023-01-16T10:05:32;21.90;43.20
15543;DHT22;7873;52.230;12.856;2023-01-16T10:08:04;21.90;43.20
15543;DHT22;7873;52.230;12.856;2023-01-16T10:10:44;22.00;43.30
15543;DHT22;7873;52.230;12.856;2023-01-16T10:13:15;21.90;43.20
15543;DHT22;7873;52.230;12.856;2023-01-16T10:15:54;22.00;43.30
15543;DHT22;7873;52.230;12.856;2023-01-16T10:18:31;21.90;43.20
15543;DHT22;7873;52.230;12.856;2023-01-16T10:21:17;22.00;43.30
15543;DHT22;7873;52.230;12.856;2023-01-16T10:24:00;21.90;43.20
15543;DHT22;7873;52.230;12.856;2023-01-16T10:26:29;21.90;43.20
15543;DHT22;7873;52.230;12.856;2023-01-16T10:29:03;21.90;43.20
15543;DHT22;7873;52.230;12.856;2023-01-16T10:31:38;21.90;43.20
15543;DHT22;7873;52.230;12.856;2023-01-16T10:34:13;21.90;43.20
15543;DHT22;7873;52.230;12.856;2023-01-16T10:36:46;21.90;43.20
15543;DHT22;7873;52.230;12.856;2023-01-16T10:39:15;21.90;43.20
15543;DHT22;7873;52.230;12.856;2023-01-16T10:41:45;21.90;43.20
15543;DHT22;7873;52.230;12.856;2023-01-16T10:44:32;21.90;43.30
15543;DHT22;7873;52.230;12.856;2023-01-16T10:47:21;21.90;43.20
15543;DHT22;7873;52.230;12.856;2023-01-16T10:50:08;21.80;43.20
15543;DHT22;7873;52.230;12.856;2023-01-16T10:52:35;21.80;43.20
15543;DHT22;7873;52.230;12.856;2023-01-16T10:55:03;21.80;43.20
15543;DHT22;7873;52.230;12.856;2023-01-16T10:57:31;21.80;43.20
15543;DHT22;7873;52.230;12.856;2023-01-16T10:59:59;21.80;43.20
15543;DHT22;7873;52.230;12.856;2023-01-16T11:02:31;21.80;43.20
15543;DHT22;7873;52.230;12.856;2023-01-16T11:05:00;21.80;43.20
15543;DHT22;7873;52.230;12.856;2023-01-16T11:07:28;21.80;43.30
15543;DHT22;7873;52.230;12.856;2023-01-16T11:09:56;21.80;43.30
15543;DHT22;7873;52.230;12.856;2023-01-16T11:12:23;21.80;43.20
15543;DHT22;7873;52.230;12.856;2023-01-16T11:15:13;21.80;43.20
15543;DHT22;7873;52.230;12.856;2023-01-16T11:18:01;21.80;43.20
15543;DHT22;7873;52.230;12.856;2023-01-16T11:20:45;21.80;43.20
15543;DHT22;7873;52.230;12.856;2023-01-16T11:23:16;21.70;43.30
15543;DHT22;7873;52.230;12.856;2023-01-16T11:25:45;21.80;43.30
15543;DHT22;7873;52.230;12.856;2023-01-16T11:28:17;21.80;43.30
15543;DHT22;7873;52.230;12.856;2023-01-16T11:30:47;21.70;43.30
15543;DHT22;7873;52.230;12.856;2023-01-16T11:33:19;21.80;43.30
15543;DHT22;7873;52.230;12.856;2023-01-16T11:35:53;21.80;43.30
15543;DHT22;7873;52.230;12.856;2023-01-16T11:38:21;21.80;43.30
15543;DHT22;7873;52.230;12.856;2023-01-16T11:40:50;21.80;43.30
15543;DHT22;7873;52.230;12.856;2023-01-16T11:43:18;21.80;43.30
15543;DHT22;7873;52.230;12.856;2023-01-16T11:46:06;21.80;43.30
15543;DHT22;7873;52.230;12.856;2023-01-16T11:48:49;21.80;43.50
15543;DHT22;7873;52.230;12.856;2023-01-16T11:51:19;21.80;44.00
15543;DHT22;7873;52.230;12.856;2023-01-16T11:53:50;21.80;43.20
15543;DHT22;7873;52.230;12.856;2023-01-16T11:56:36;21.70;43.20
15543;DHT22;7873;52.230;12.856;2023-01-16T11:59:13;21.80;43.20
15543;DHT22;7873;52.230;12.856;2023-01-16T12:02:06;21.80;43.20
15543;DHT22;7873;52.230;12.856;2023-01-16T12:04:47;21.80;43.20
15543;DHT22;7873;52.230;12.856;2023-01-16T12:07:37;21.80;43.20
15543;DHT22;7873;52.230;12.856;2023-01-16T12:10:14;21.70;43.20
15543;DHT22;7873;52.230;12.856;2023-01-16T12:12:49;21.70;43.20
15543;DHT22;7873;52.230;12.856;2023-01-16T12:15:44;21.70;43.20
15543;DHT22;7873;52.230;12.856;2023-01-16T12:18:24;21.70;43.10
15543;DHT22;7873;52.230;12.856;2023-01-16T12:20:58;21.70;43.20
15543;DHT22;7873;52.230;12.856;2023-01-16T12:23:39;21.70;43.20
15543;DHT22;7873;52.230;12.856;2023-01-16T12:26:18;21.70;43.10
15543;DHT22;7873;52.230;12.856;2023-01-16T12:28:51;21.70;43.10
15543;DHT22;7873;52.230;12.856;2023-01-16T12:31:33;21.70;43.10
15543;DHT22;7873;52.230;12.856;2023-01-16T12:34:21;21.70;43.10
15543;DHT22;7873;52.230;12.856;2023-01-16T12:37:05;21.70;43.10
15543;DHT22;7873;52.230;12.856;2023-01-16T12:39:44;21.70;43.10
15543;DHT22;7873;52.230;12.856;2023-01-16T12:42:22;21.70;43.10
15543;DHT22;7873;52.230;12.856;2023-01-16T12:45:19;21.70;43.10
15543;DHT22;7873;52.230;12.856;2023-01-16T12:47:58;21.70;43.10
15543;DHT22;7873;52.230;12.856;2023-01-16T12:50:41;21.70;43.00
15543;DHT22;7873;52.230;12.856;2023-01-16T12:53:21;21.70;43.00
15543;DHT22;7873;52.230;12.856;2023-01-16T12:55:59;21.70;43.00
15543;DHT22;7873;52.230;12.856;2023-01-16T12:58:40;21.80;43.00
15543;DHT22;7873;52.230;12.856;2023-01-16T13:01:12;21.80;43.00
15543;DHT22;7873;52.230;12.856;2023-01-16T13:03:44;21.70;42.90
15543;DHT22;7873;52.230;12.856;2023-01-16T13:06:19;21.80;43.00
15543;DHT22;7873;52.230;12.856;2023-01-16T13:08:58;21.70;42.90
15543;DHT22;7873;52.230;12.856;2023-01-16T13:11:35;21.70;42.90
15543;DHT22;7873;52.230;12.856;2023-01-16T13:14:22;21.70;42.90
15543;DHT22;7873;52.230;12.856;2023-01-16T13:16:54;21.70;42.90
15543;DHT22;7873;52.230;12.856;2023-01-16T13:19:27;21.70;42.90
15543;DHT22;7873;52.230;12.856;2023-01-16T13:21:59;21.70;43.70
15543;DHT22;7873;52.230;12.856;2023-01-16T13:24:33;21.70;42.90
15543;DHT22;7873;52.230;12.856;2023-01-16T13:27:08;21.70;43.00
15543;DHT22;7873;52.230;12.856;2023-01-16T13:29:40;21.70;43.00
15543;DHT22;7873;52.230;12.856;2023-01-16T13:32:15;21.70;43.10
15543;DHT22;7873;52.230;12.856;2023-01-16T13:34:49;21.60;43.00
15543;DHT22;7873;52.230;12.856;2023-01-16T13:37:22;21.60;43.00
15543;DHT22;7873;52.230;12.856;2023-01-16T13:40:07;21.60;43.00
15543;DHT22;7873;52.230;12.856;2023-01-16T13:42:49;21.60;43.80
15543;DHT22;7873;52.230;12.856;2023-01-16T13:45:23;21.60;43.10
15543;DHT22;7873;52.230;12.856;2023-01-16T13:48:14;21.60;43.10
15543;DHT22;7873;52.230;12.856;2023-01-16T13:50:43;21.50;43.10
15543;DHT22;7873;52.230;12.856;2023-01-16T13:53:15;21.50;43.20
15543;DHT22;7873;52.230;12.856;2023-01-16T13:55:44;21.50;43.20
15543;DHT22;7873;52.230;12.856;2023-01-16T13:58:14;21.50;43.30
15543;DHT22;7873;52.230;12.856;2023-01-16T14:00:42;21.50;43.30
15543;DHT22;7873;52.230;12.856;2023-01-16T14:03:18;21.50;43.30
15543;DHT22;7873;52.230;12.856;2023-01-16T14:05:47;21.50;43.30
15543;DHT22;7873;52.230;12.856;2023-01-16T14:08:19;21.50;43.30
15543;DHT22;7873;52.230;12.856;2023-01-16T14:17:08;21.40;43.30
15543;DHT22;7873;52.230;12.856;2023-01-16T14:19:35;21.40;43.30
15543;DHT22;7873;52.230;12.856;2023-01-16T14:22:03;21.40;43.30
15543;DHT22;7873;52.230;12.856;2023-01-16T14:24:50;21.40;43.40
15543;DHT22;7873;52.230;12.856;2023-01-16T14:27:21;21.40;43.30
15543;DHT22;7873;52.230;12.856;2023-01-16T14:29:50;21.40;43.30
15543;DHT22;7873;52.230;12.856;2023-01-16T14:32:23;21.40;43.30
15543;DHT22;7873;52.230;12.856;2023-01-16T14:34:52;21.40;43.30
15543;DHT22;7873;52.230;12.856;2023-01-16T14:37:22;21.30;43.30
15543;DHT22;7873;52.230;12.856;2023-01-16T14:39:53;21.30;43.30
15543;DHT22;7873;52.230;12.856;2023-01-16T14:42:26;21.30;43.30
15543;DHT22;7873;52.230;12.856;2023-01-16T14:48:14;21.30;43.30
15543;DHT22;7873;52.230;12.856;2023-01-16T14:51:16;21.30;43.30
15543;DHT22;7873;52.230;12.856;2023-01-16T14:54:03;21.30;43.30
15543;DHT22;7873;52.230;12.856;2023-01-16T14:56:51;21.30;43.30
15543;DHT22;7873;52.230;12.856;2023-01-16T14:59:22;21.30;43.30
15543;DHT22;7873;52.230;12.856;2023-01-16T15:01:54;21.30;43.30
15543;DHT22;7873;52.230;12.856;2023-01-16T15:04:44;21.30;43.30
15543;DHT22;7873;52.230;12.856;2023-01-16T15:07:18;21.20;43.20
15543;DHT22;7873;52.230;12.856;2023-01-16T15:09:49;21.20;43.30
15543;DHT22;7873;52.230;12.856;2023-01-16T15:12:16;21.20;44.00
15543;DHT22;7873;52.230;12.856;2023-01-16T15:14:54;21.30;41.30
15543;DHT22;7873;52.230;12.856;2023-01-16T15:17:25;21.00;35.20
15543;DHT22;7873;52.230;12.856;2023-01-16T15:20:16;20.30;35.60
15543;DHT22;7873;52.230;12.856;2023-01-16T15:23:03;20.00;34.40
15543;DHT22;7873;52.230;12.856;2023-01-16T15:25:52;19.80;34.60
15543;DHT22;7873;52.230;12.856;2023-01-16T15:28:33;19.60;34.20
15543;DHT22;7873;52.230;12.856;2023-01-16T15:31:08;19.50;33.40
15543;DHT22;7873;52.230;12.856;2023-01-16T15:33:37;19.30;33.50
15543;DHT22;7873;52.230;12.856;2023-01-16T15:36:13;19.10;33.80
15543;DHT22;7873;52.230;12.856;2023-01-16T15:38:47;18.90;34.40
15543;DHT22;7873;52.230;12.856;2023-01-16T15:41:17;19.10;34.50
15543;DHT22;7873;52.230;12.856;2023-01-16T15:43:44;19.20;34.00
15543;DHT22;7873;52.230;12.856;2023-01-16T15:46:31;19.00;34.30
15543;DHT22;7873;52.230;12.856;2023-01-16T15:49:22;19.10;34.50
15543;DHT22;7873;52.230;12.856;2023-01-16T15:51:56;19.30;34.80
15543;DHT22;7873;52.230;12.856;2023-01-16T15:54:24;19.70;35.10
15543;DHT22;7873;52.230;12.856;2023-01-16T15:56:51;20.10;35.00
15543;DHT22;7873;52.230;12.856;2023-01-16T15:59:19;20.40;34.80
15543;DHT22;7873;52.230;12.856;2023-01-16T16:01:49;20.60;34.70
15543;DHT22;7873;52.230;12.856;2023-01-16T16:04:16;20.60;33.70
15543;DHT22;7873;52.230;12.856;2023-01-16T16:06:43;20.80;35.40
15543;DHT22;7873;52.230;12.856;2023-01-16T16:09:13;21.20;36.00
15543;DHT22;7873;52.230;12.856;2023-01-16T16:11:43;21.60;36.00